createdAt,value
2018-08-19T00:04:13.544Z,18.80
2018-08-19T00:07:02.284Z,18.37
2018-08-19T00:09:44.961Z,17.00
2018-08-19T00:12:38.548Z,16.30
2018-08-19T02:36:00.685Z,14.33
2018-08-19T02:38:30.296Z,14.85
2018-08-19T02:41:00.504Z,15.43
2018-08-19T02:43:30.183Z,15.08
2018-08-19T02:46:00.502Z,14.35
2018-08-19T02:48:43.835Z,15.78
2018-08-19T02:51:14.792Z,14.33
2018-08-19T02:53:45.253Z,14.25
2018-08-19T02:56:19.057Z,15.63
2018-08-19T02:58:52.238Z,16.07
2018-08-19T03:01:32.188Z,14.70
2018-08-19T03:04:05.077Z,14.45
2018-08-19T03:06:51.857Z,14.20
2018-08-19T03:09:51.090Z,15.35
2018-08-19T03:12:31.963Z,14.68
2018-08-19T03:15:07.652Z,13.85
2018-08-19T03:17:57.460Z,14.43
2018-08-19T03:20:57.410Z,14.45
2018-08-19T03:29:27.364Z,13.90
2018-08-19T03:32:10.532Z,14.68
2018-08-19T03:34:45.111Z,14.95
2018-08-19T03:37:22.713Z,14.78
2018-08-19T03:40:00.350Z,15.08
2018-08-19T03:42:45.989Z,14.55
2018-08-19T03:48:07.936Z,14.53
2018-08-19T03:51:05.088Z,13.30
2018-08-19T03:53:57.474Z,15.03
2018-08-19T03:56:37.713Z,15.65
2018-08-19T04:01:57.068Z,15.08
2018-08-19T04:04:33.775Z,14.25
2018-08-19T04:07:05.272Z,15.60
2018-08-19T04:09:38.973Z,15.00
2018-08-19T04:12:19.763Z,14.15
2018-08-19T04:15:00.747Z,16.32
2018-08-19T04:17:51.475Z,15.58
2018-08-19T04:20:30.708Z,14.15
2018-08-19T06:54:42.777Z,12.53
2018-08-19T06:57:13.376Z,13.68
2018-08-19T06:59:46.834Z,13.72
2018-08-19T07:02:15.939Z,12.28
2018-08-19T07:04:48.038Z,18.82
2018-08-19T07:07:18.592Z,12.82
2018-08-19T07:09:49.117Z,15.75
2018-08-19T07:12:20.993Z,14.53
2018-08-19T07:14:50.411Z,11.93
2018-08-19T07:17:23.624Z,11.78
2018-08-19T07:19:59.542Z,11.90
2018-08-19T07:22:30.926Z,12.43
2018-08-19T07:25:00.415Z,11.28
2018-08-19T07:27:30.495Z,13.05
2018-08-19T07:29:59.724Z,12.63
2018-08-19T07:32:29.501Z,12.82
2018-08-19T07:34:59.664Z,12.82
2018-08-19T07:37:28.691Z,13.50
2018-08-19T07:40:00.748Z,11.73
2018-08-19T07:42:31.115Z,10.65
2018-08-19T07:48:20.915Z,11.73
2018-08-19T07:56:39.359Z,11.12
2018-08-19T08:02:23.525Z,12.43
2018-08-19T08:05:07.690Z,12.75
2018-08-19T08:07:47.799Z,11.03
2018-08-19T08:10:23.893Z,10.70
2018-08-19T08:12:59.129Z,10.38
2018-08-19T08:15:32.314Z,10.88
2018-08-19T08:18:01.412Z,10.00
2018-08-19T08:20:30.854Z,10.50
2018-08-19T08:23:03.152Z,9.98
2018-08-19T08:25:32.298Z,9.73
2018-08-19T08:28:01.589Z,12.15
2018-08-19T08:30:37.879Z,11.68
2018-08-19T08:33:09.360Z,11.70
2018-08-19T08:35:45.655Z,10.70
2018-08-19T08:38:16.463Z,12.05
2018-08-19T08:40:51.225Z,11.05
2018-08-19T08:43:23.283Z,11.50
2018-08-19T08:46:11.768Z,10.43
2018-08-19T08:49:34.085Z,9.95
2018-08-19T08:52:13.945Z,11.30
2018-08-19T08:54:50.425Z,11.45
2018-08-19T08:57:25.463Z,11.15
2018-08-19T09:02:54.789Z,10.88
2018-08-19T09:11:56.391Z,10.32
2018-08-19T09:17:41.567Z,9.93
2018-08-19T09:20:43.177Z,10.45
2018-08-19T09:23:31.768Z,10.82
2018-08-19T09:26:26.129Z,9.13
2018-08-19T09:29:16.540Z,9.48
2018-08-19T09:32:01.101Z,10.28
2018-08-19T09:37:38.523Z,10.48
2018-08-19T09:43:19.700Z,12.75
2018-08-19T09:46:02.597Z,12.43
2018-08-19T09:48:45.025Z,9.83
2018-08-19T09:51:32.426Z,10.35
2018-08-19T09:54:25.945Z,11.03
2018-08-19T09:57:23.583Z,11.15
2018-08-19T09:59:58.862Z,11.85
2018-08-19T10:02:37.136Z,10.98
2018-08-19T10:05:17.053Z,10.60
2018-08-19T10:11:58.884Z,10.30
2018-08-19T10:14:30.833Z,11.48
2018-08-19T10:17:08.644Z,11.33
2018-08-19T10:22:49.204Z,10.93
2018-08-19T10:25:34.879Z,11.15
2018-08-19T10:28:14.864Z,10.40
2018-08-19T10:34:26.850Z,10.48
2018-08-19T10:39:57.652Z,11.22
2018-08-19T10:42:39.733Z,10.70
2018-08-19T10:45:25.872Z,10.75
2018-08-19T10:48:12.634Z,10.32
2018-08-19T10:53:57.480Z,12.20
2018-08-19T11:08:21.862Z,9.50
2018-08-19T11:14:20.062Z,9.45
2018-08-19T11:20:30.775Z,9.65
2018-08-19T11:23:53.073Z,9.75
2018-08-19T11:26:40.106Z,11.20
2018-08-19T11:32:55.102Z,8.50
2018-08-19T11:35:34.246Z,10.05
2018-08-19T11:38:12.437Z,9.03
2018-08-19T11:40:49.097Z,9.85
2018-08-19T11:43:39.077Z,8.78
2018-08-19T11:53:06.609Z,8.48
2018-08-19T11:58:44.577Z,8.80
2018-08-19T12:01:43.624Z,8.70
2018-08-19T12:18:20.437Z,10.13
2018-08-19T12:20:51.731Z,7.50
2018-08-19T12:23:23.033Z,7.85
2018-08-19T12:25:52.639Z,8.08
2018-08-19T12:28:22.146Z,7.97
2018-08-19T12:30:59.847Z,8.73
2018-08-19T12:33:31.115Z,8.40
2018-08-19T12:36:03.760Z,9.03
2018-08-19T12:38:34.527Z,8.55
2018-08-19T12:41:06.773Z,8.25
2018-08-19T12:46:52.816Z,8.63
2018-08-19T12:52:41.883Z,8.85
2018-08-19T13:02:19.189Z,8.10
2018-08-19T13:05:01.831Z,7.50
2018-08-19T13:07:37.327Z,8.00
2018-08-19T13:13:42.845Z,8.35
2018-08-19T13:24:07.392Z,7.67
2018-08-19T13:26:49.297Z,7.92
2018-08-19T13:29:42.858Z,6.62
2018-08-19T13:36:09.402Z,7.37
2018-08-19T13:38:56.618Z,6.85
2018-08-19T13:41:55.834Z,7.62
2018-08-19T13:50:48.137Z,6.97
2018-08-19T13:56:03.623Z,7.08
2018-08-19T13:58:35.562Z,6.60
2018-08-19T14:01:13.095Z,6.75
2018-08-19T14:03:52.106Z,6.97
2018-08-19T14:06:52.341Z,7.95
